createdAt,value
2023-02-27T00:01:53.772Z,85.05
2023-02-27T00:04:22.053Z,84.95
2023-02-27T00:06:50.540Z,84.92
2023-02-27T00:09:18.813Z,85.18
2023-02-27T00:11:47.001Z,85.02
2023-02-27T00:14:15.171Z,85.33
2023-02-27T00:16:43.764Z,85.65
2023-02-27T00:19:12.766Z,85.36
2023-02-27T00:21:41.461Z,85.31
2023-02-27T00:24:09.834Z,85.28
2023-02-27T00:26:38.220Z,85.41
2023-02-27T00:29:07.305Z,85.50
2023-02-27T00:31:35.519Z,85.60
2023-02-27T00:34:04.405Z,85.58
2023-02-27T00:36:32.889Z,85.42
2023-02-27T00:39:01.371Z,85.72
2023-02-27T00:41:30.057Z,85.49
2023-02-27T00:43:59.468Z,85.53
2023-02-27T00:46:28.285Z,85.22
2023-02-27T00:48:57.169Z,85.00
2023-02-27T00:51:27.422Z,85.42
2023-02-27T00:53:56.990Z,85.17
2023-02-27T00:56:25.388Z,85.08
2023-02-27T00:58:54.274Z,85.08
2023-02-27T01:01:23.579Z,85.03
2023-02-27T01:03:51.968Z,84.99
2023-02-27T01:06:20.368Z,85.08
2023-02-27T01:08:49.145Z,84.82
2023-02-27T01:11:17.329Z,84.91
2023-02-27T01:13:46.429Z,84.73
2023-02-27T01:16:15.254Z,84.58
2023-02-27T01:18:43.606Z,84.59
2023-02-27T01:21:12.281Z,84.68
2023-02-27T01:23:40.579Z,84.67
2023-02-27T01:26:09.381Z,84.70
2023-02-27T01:28:37.991Z,84.84
2023-02-27T01:31:06.448Z,85.14
2023-02-27T01:33:34.734Z,85.34
2023-02-27T01:36:03.226Z,85.27
2023-02-27T01:38:31.609Z,85.65
2023-02-27T01:41:02.803Z,85.62
2023-02-27T01:43:53.032Z,85.76
2023-02-27T01:46:21.835Z,86.38
2023-02-27T01:48:55.780Z,86.35
2023-02-27T01:51:24.825Z,86.32
2023-02-27T01:53:53.926Z,86.25
2023-02-27T01:56:27.032Z,86.09
2023-02-27T01:59:01.554Z,86.40
2023-02-27T02:01:33.149Z,86.14
2023-02-27T02:04:13.311Z,86.14
2023-02-27T02:06:46.899Z,86.37
2023-02-27T02:09:18.715Z,86.47
2023-02-27T02:11:47.699Z,86.68
2023-02-27T02:14:19.389Z,86.81
2023-02-27T02:17:17.866Z,87.15
2023-02-27T02:19:58.316Z,86.93
2023-02-27T02:22:58.841Z,87.49
2023-02-27T02:25:38.992Z,87.64
2023-02-27T02:28:50.151Z,88.11
2023-02-27T02:32:03.756Z,88.71
2023-02-27T02:34:47.094Z,88.87
2023-02-27T02:37:18.336Z,88.46
2023-02-27T02:40:25.924Z,88.89
2023-02-27T02:43:11.395Z,89.03
2023-02-27T02:45:49.456Z,89.21
2023-02-27T02:48:26.691Z,89.18
2023-02-27T02:51:37.137Z,89.53
2023-02-27T02:54:34.272Z,89.60
2023-02-27T02:57:16.162Z,89.83
2023-02-27T03:00:01.131Z,89.96
2023-02-27T03:02:36.375Z,90.04
2023-02-27T03:05:19.382Z,90.25
2023-02-27T03:08:09.061Z,90.37
2023-02-27T03:11:04.666Z,90.49
2023-02-27T03:13:45.124Z,90.90
2023-02-27T03:16:22.198Z,90.98
2023-02-27T03:19:00.610Z,90.76
2023-02-27T03:21:59.387Z,90.76
2023-02-27T03:24:33.473Z,90.97
2023-02-27T03:27:04.752Z,90.74
2023-02-27T03:30:06.257Z,90.90
2023-02-27T03:33:02.812Z,91.11
2023-02-27T03:36:04.764Z,91.04
2023-02-27T03:38:54.945Z,90.99
2023-02-27T03:41:33.152Z,90.83
2023-02-27T03:44:53.522Z,90.82
2023-02-27T03:47:22.419Z,90.97
2023-02-27T03:49:51.384Z,91.11
2023-02-27T03:52:21.860Z,91.18
2023-02-27T03:55:21.962Z,91.22
2023-02-27T03:57:52.390Z,91.20
2023-02-27T04:00:23.784Z,91.40
2023-02-27T04:02:54.829Z,91.36
2023-02-27T04:05:26.875Z,91.61
2023-02-27T04:08:10.182Z,91.51
2023-02-27T04:10:57.600Z,91.66
2023-02-27T04:13:44.724Z,91.58
2023-02-27T04:16:42.666Z,91.90
2023-02-27T04:19:22.942Z,91.85
2023-02-27T04:22:28.665Z,92.34
2023-02-27T04:25:07.382Z,92.20
2023-02-27T04:27:48.254Z,92.42
2023-02-27T04:30:22.368Z,92.56
2023-02-27T04:33:10.818Z,92.62
2023-02-27T04:35:48.177Z,92.71
2023-02-27T04:38:49.947Z,92.80
2023-02-27T04:41:25.579Z,92.99
2023-02-27T04:43:55.431Z,92.90
2023-02-27T04:46:28.197Z,93.02
2023-02-27T04:49:04.346Z,93.12
2023-02-27T04:51:44.529Z,93.28
2023-02-27T04:54:17.817Z,93.33
2023-02-27T04:57:02.643Z,93.52
2023-02-27T04:59:39.653Z,93.81
2023-02-27T05:02:14.696Z,93.89
2023-02-27T05:04:45.527Z,94.10
2023-02-27T05:07:19.337Z,94.17
2023-02-27T05:09:55.458Z,94.31
2023-02-27T05:12:32.586Z,94.48
2023-02-27T05:15:12.371Z,94.38
2023-02-27T05:17:48.142Z,94.43
2023-02-27T05:20:18.204Z,94.71
2023-02-27T05:22:51.762Z,94.67
2023-02-27T05:25:52.016Z,94.70
2023-02-27T05:28:45.045Z,94.78
2023-02-27T05:31:26.885Z,94.93
2023-02-27T05:34:08.648Z,95.01
2023-02-27T05:36:54.066Z,95.01
2023-02-27T05:39:25.953Z,94.94
2023-02-27T05:42:00.706Z,94.86
2023-02-27T05:44:36.251Z,95.03
2023-02-27T05:47:13.440Z,94.75
2023-02-27T05:49:47.907Z,94.76
2023-02-27T05:52:20.260Z,94.76
2023-02-27T05:55:18.604Z,94.67
2023-02-27T05:57:57.608Z,94.51
2023-02-27T06:00:53.850Z,94.50
2023-02-27T06:03:22.463Z,93.95
2023-02-27T06:05:54.026Z,93.86
2023-02-27T06:08:23.176Z,94.12
2023-02-27T06:10:51.685Z,94.16
2023-02-27T06:13:20.101Z,94.36
2023-02-27T06:15:49.604Z,94.20
2023-02-27T06:18:18.794Z,93.96
2023-02-27T06:20:47.683Z,93.99
2023-02-27T06:23:15.967Z,94.27
2023-02-27T06:25:44.675Z,94.07
2023-02-27T06:28:13.145Z,94.06
2023-02-27T06:30:41.766Z,94.04
2023-02-27T06:33:12.575Z,93.75
2023-02-27T06:35:40.962Z,93.64
2023-02-27T06:38:09.647Z,93.44
2023-02-27T06:40:39.174Z,93.42
2023-02-27T06:43:07.739Z,93.18
2023-02-27T06:45:38.272Z,93.23
2023-02-27T06:48:07.141Z,93.19
2023-02-27T06:50:35.662Z,93.32
2023-02-27T06:53:04.553Z,93.22
2023-02-27T06:55:33.915Z,92.91
2023-02-27T06:58:02.183Z,92.82
2023-02-27T07:00:30.601Z,92.69
2023-02-27T07:02:59.254Z,92.62
2023-02-27T07:05:27.704Z,92.60
2023-02-27T07:07:58.560Z,92.43
2023-02-27T07:10:27.041Z,92.10
2023-02-27T07:12:55.513Z,92.07
2023-02-27T07:15:24.005Z,92.36
2023-02-27T07:17:54.565Z,92.18
2023-02-27T07:20:23.838Z,92.04
2023-02-27T07:22:52.251Z,91.63
2023-02-27T07:25:20.529Z,91.36
2023-02-27T07:27:51.041Z,91.37
2023-02-27T07:30:19.832Z,91.04
2023-02-27T07:32:58.786Z,90.92
2023-02-27T07:35:29.729Z,91.05
2023-02-27T07:37:58.395Z,90.71
2023-02-27T07:40:27.112Z,91.02
2023-02-27T07:42:55.371Z,90.84
2023-02-27T07:45:24.061Z,90.51
2023-02-27T07:47:52.554Z,90.25
2023-02-27T07:50:21.299Z,90.18
2023-02-27T07:52:49.522Z,89.97
2023-02-27T07:55:18.214Z,90.00
2023-02-27T07:57:46.803Z,89.56
2023-02-27T08:00:15.863Z,89.63
2023-02-27T08:02:44.251Z,89.84
2023-02-27T08:05:12.882Z,89.97
2023-02-27T08:07:41.369Z,89.96
2023-02-27T08:10:10.878Z,90.01
2023-02-27T08:12:39.534Z,89.93
2023-02-27T08:15:08.686Z,90.17
2023-02-27T08:17:37.980Z,89.89
2023-02-27T08:20:07.627Z,89.83
2023-02-27T08:22:36.486Z,89.76
2023-02-27T08:25:07.775Z,89.72
2023-02-27T08:27:36.015Z,89.91
2023-02-27T08:30:07.277Z,89.92
2023-02-27T08:32:35.971Z,89.80
2023-02-27T08:35:05.178Z,89.71
2023-02-27T08:37:33.640Z,89.85
2023-02-27T08:40:02.341Z,89.65
2023-02-27T08:42:31.123Z,89.58
2023-02-27T08:44:59.609Z,89.65
2023-02-27T08:47:28.200Z,89.73
2023-02-27T08:49:56.994Z,89.64
2023-02-27T08:52:25.377Z,89.62
2023-02-27T08:54:53.759Z,89.70
2023-02-27T08:57:22.353Z,89.71
2023-02-27T08:59:50.693Z,89.63
2023-02-27T09:02:19.663Z,89.54
2023-02-27T09:04:48.016Z,89.67
2023-02-27T09:07:16.400Z,89.72
2023-02-27T09:09:45.299Z,89.50
2023-02-27T09:12:13.688Z,89.24
2023-02-27T09:14:41.966Z,89.21
2023-02-27T09:17:10.249Z,89.19
2023-02-27T09:19:38.630Z,89.02
2023-02-27T09:22:06.811Z,89.13
2023-02-27T09:24:34.995Z,89.06
2023-02-27T09:27:03.475Z,88.65
2023-02-27T09:29:32.275Z,88.66
2023-02-27T09:32:01.163Z,88.93
2023-02-27T09:34:29.863Z,88.70
2023-02-27T09:37:01.625Z,88.24
2023-02-27T09:39:30.721Z,88.38
2023-02-27T09:42:05.495Z,88.37
2023-02-27T09:44:47.420Z,87.81
2023-02-27T09:47:29.655Z,87.78
2023-02-27T09:50:22.389Z,87.70
2023-02-27T09:52:50.868Z,87.56
2023-02-27T09:55:22.285Z,87.37
2023-02-27T09:58:14.245Z,87.45
2023-02-27T10:01:05.862Z,87.32
2023-02-27T10:04:11.116Z,86.89
2023-02-27T10:07:16.686Z,86.90
2023-02-27T10:09:58.917Z,86.89
2023-02-27T10:12:53.765Z,86.88
2023-02-27T10:15:32.564Z,86.75
2023-02-27T10:18:16.864Z,86.80
2023-02-27T10:20:56.725Z,86.48
2023-02-27T10:23:50.699Z,85.84
2023-02-27T10:26:22.353Z,85.66
2023-02-27T10:28:50.639Z,85.57
2023-02-27T10:31:24.446Z,85.66
2023-02-27T10:33:52.725Z,85.78
2023-02-27T10:36:33.018Z,85.59
2023-02-27T10:39:07.952Z,85.56
2023-02-27T10:41:39.927Z,84.22
2023-02-27T10:44:11.134Z,83.60
2023-02-27T10:46:41.257Z,83.36
2023-02-27T10:49:19.397Z,82.68
2023-02-27T10:52:06.217Z,83.29
2023-02-27T10:54:35.115Z,84.30
2023-02-27T10:57:18.594Z,84.97
2023-02-27T11:00:09.797Z,84.91
2023-02-27T11:02:43.479Z,85.24
2023-02-27T11:05:27.560Z,85.54
2023-02-27T11:08:11.373Z,85.49
2023-02-27T11:10:57.774Z,85.66
2023-02-27T11:13:29.733Z,85.43
2023-02-27T11:16:09.119Z,85.54
2023-02-27T11:18:40.121Z,85.53
2023-02-27T11:21:11.783Z,85.26
2023-02-27T11:24:06.488Z,84.93
2023-02-27T11:26:40.496Z,84.77
2023-02-27T11:29:16.028Z,84.50
2023-02-27T11:31:55.051Z,84.50
2023-02-27T11:34:34.074Z,84.58
2023-02-27T11:37:07.925Z,84.34
2023-02-27T11:39:48.775Z,83.63
2023-02-27T11:42:19.100Z,83.91
2023-02-27T11:45:01.843Z,84.26
2023-02-27T11:47:36.311Z,84.47
2023-02-27T11:50:24.504Z,84.27
2023-02-27T11:53:01.957Z,84.50
2023-02-27T11:55:32.556Z,84.53
2023-02-27T11:58:29.825Z,84.42
2023-02-27T12:01:15.405Z,84.28
2023-02-27T12:03:43.630Z,83.92
2023-02-27T12:06:28.953Z,83.98
2023-02-27T12:09:05.624Z,83.97
2023-02-27T12:11:42.277Z,82.96
2023-02-27T12:14:41.429Z,83.03
2023-02-27T12:17:22.986Z,83.35
2023-02-27T12:20:05.065Z,83.50
2023-02-27T12:22:38.983Z,84.09
2023-02-27T12:25:17.799Z,83.99
2023-02-27T12:28:01.019Z,84.33
2023-02-27T12:30:40.255Z,84.59
2023-02-27T12:33:36.369Z,84.57
2023-02-27T12:36:10.380Z,84.98
2023-02-27T12:38:39.388Z,84.81
2023-02-27T12:41:38.068Z,84.80
2023-02-27T12:44:37.862Z,84.71
2023-02-27T12:47:24.178Z,84.90
2023-02-27T12:50:13.007Z,84.89
2023-02-27T12:52:56.524Z,85.10
2023-02-27T12:55:32.072Z,84.89
2023-02-27T12:58:12.958Z,84.93
2023-02-27T13:00:47.118Z,84.93
2023-02-27T13:03:28.846Z,85.24
2023-02-27T13:06:17.010Z,85.26
2023-02-27T13:09:03.635Z,85.40
2023-02-27T13:12:08.811Z,85.41
2023-02-27T13:14:49.176Z,85.36
2023-02-27T13:17:23.508Z,85.30
2023-02-27T13:19:55.045Z,85.45
2023-02-27T13:22:38.681Z,85.41
2023-02-27T13:25:14.553Z,85.66
2023-02-27T13:27:56.226Z,85.53
2023-02-27T13:30:39.545Z,85.84
2023-02-27T13:33:14.223Z,85.66
2023-02-27T13:35:54.741Z,85.65
2023-02-27T13:38:46.214Z,86.04
2023-02-27T13:41:20.999Z,86.07
2023-02-27T13:44:00.330Z,85.77
2023-02-27T13:46:33.963Z,86.13
2023-02-27T13:49:05.889Z,86.03
2023-02-27T13:51:41.332Z,85.68
2023-02-27T13:54:18.619Z,85.72
2023-02-27T13:56:47.000Z,85.16
2023-02-27T13:59:21.220Z,85.46
2023-02-27T14:02:03.823Z,85.00
2023-02-27T14:04:35.897Z,85.26
2023-02-27T14:07:12.124Z,85.05
2023-02-27T14:09:44.824Z,85.12
2023-02-27T14:12:42.493Z,85.12
2023-02-27T14:15:22.298Z,85.82
2023-02-27T14:18:09.303Z,85.55
2023-02-27T14:20:40.143Z,85.04
2023-02-27T14:23:17.507Z,85.18
2023-02-27T14:26:14.712Z,84.89
2023-02-27T14:28:55.940Z,84.60
2023-02-27T14:31:32.565Z,84.57
2023-02-27T14:34:06.088Z,84.82
2023-02-27T14:36:41.816Z,84.55
2023-02-27T14:39:35.683Z,84.43
2023-02-27T14:42:22.839Z,84.91
2023-02-27T14:44:53.026Z,84.72
2023-02-27T14:47:38.731Z,84.27
2023-02-27T14:50:22.820Z,84.12
2023-02-27T14:52:51.137Z,84.46
2023-02-27T14:55:29.982Z,84.33
2023-02-27T14:58:08.483Z,84.58
2023-02-27T15:00:41.049Z,84.68
2023-02-27T15:03:34.698Z,84.30
2023-02-27T15:06:12.508Z,84.17
2023-02-27T15:08:45.385Z,84.44
2023-02-27T15:11:20.048Z,84.37
2023-02-27T15:13:56.915Z,84.49
2023-02-27T15:16:35.492Z,84.34
2023-02-27T15:19:20.174Z,84.31
2023-02-27T15:21:52.668Z,84.16
2023-02-27T15:24:37.822Z,84.51
2023-02-27T15:27:22.830Z,84.40
2023-02-27T15:29:55.004Z,84.52
2023-02-27T15:32:35.822Z,84.49
2023-02-27T15:35:15.100Z,84.09
2023-02-27T15:37:50.807Z,84.18
2023-02-27T15:40:22.974Z,84.05
2023-02-27T15:42:54.529Z,84.03
2023-02-27T15:45:27.929Z,83.92
2023-02-27T15:47:56.994Z,84.20
2023-02-27T15:50:33.712Z,84.28
2023-02-27T15:53:11.109Z,84.32
2023-02-27T15:55:51.557Z,84.31
2023-02-27T15:58:27.121Z,84.67
2023-02-27T16:01:19.500Z,84.68
2023-02-27T16:03:50.874Z,84.89
2023-02-27T16:06:39.258Z,84.89
2023-02-27T16:09:19.994Z,84.81
2023-02-27T16:11:49.566Z,84.88
2023-02-27T16:14:42.973Z,84.99
2023-02-27T16:17:29.385Z,85.01
2023-02-27T16:20:02.077Z,84.78
2023-02-27T16:22:30.744Z,84.77
2023-02-27T16:25:12.098Z,84.65
2023-02-27T16:27:40.491Z,84.61
2023-02-27T16:30:12.925Z,84.39
2023-02-27T16:32:44.320Z,84.26
2023-02-27T16:35:21.587Z,84.34
2023-02-27T16:37:50.954Z,84.26
2023-02-27T16:40:22.705Z,84.37
2023-02-27T16:42:52.178Z,84.31
2023-02-27T16:45:26.212Z,84.14
2023-02-27T16:47:59.959Z,84.13
2023-02-27T16:50:28.269Z,84.17
2023-02-27T16:52:57.644Z,83.90
2023-02-27T16:55:26.909Z,84.07
2023-02-27T16:57:55.284Z,83.88
2023-02-27T17:00:23.561Z,83.45
2023-02-27T17:02:52.161Z,83.91
2023-02-27T17:05:20.641Z,83.93
2023-02-27T17:07:49.228Z,83.68
2023-02-27T17:10:22.119Z,83.68
2023-02-27T17:12:50.705Z,83.62
2023-02-27T17:15:19.502Z,82.99
2023-02-27T17:17:47.785Z,83.56
2023-02-27T17:20:17.600Z,83.51
2023-02-27T17:22:45.995Z,83.22
2023-02-27T17:25:14.471Z,83.17
2023-02-27T17:27:43.942Z,83.37
2023-02-27T17:30:14.075Z,83.28
2023-02-27T17:32:45.151Z,82.46
2023-02-27T17:35:13.534Z,82.45
2023-02-27T17:37:42.350Z,82.68
2023-02-27T17:40:12.391Z,82.71
2023-02-27T17:42:40.853Z,82.61
2023-02-27T17:45:10.621Z,82.25
2023-02-27T17:47:39.147Z,81.86
2023-02-27T17:50:09.548Z,82.04
2023-02-27T17:52:37.975Z,82.16
2023-02-27T17:55:08.775Z,82.70
2023-02-27T17:57:39.233Z,82.67
2023-02-27T18:00:10.707Z,82.37
2023-02-27T18:02:39.010Z,82.07
2023-02-27T18:05:08.042Z,82.54
2023-02-27T18:07:36.757Z,82.54
2023-02-27T18:10:07.271Z,82.60
2023-02-27T18:12:36.632Z,82.65
2023-02-27T18:15:07.202Z,82.85
2023-02-27T18:17:35.614Z,82.95
2023-02-27T18:20:05.350Z,83.03
2023-02-27T18:22:33.930Z,82.51
2023-02-27T18:25:02.427Z,82.75
2023-02-27T18:27:30.794Z,82.61
2023-02-27T18:29:59.382Z,82.64
2023-02-27T18:32:27.862Z,82.58
2023-02-27T18:34:57.323Z,82.61
2023-02-27T18:37:25.550Z,82.78
2023-02-27T18:39:54.345Z,82.64
2023-02-27T18:42:22.938Z,82.38
2023-02-27T18:44:51.541Z,82.29
2023-02-27T18:47:20.101Z,82.11
2023-02-27T18:49:48.498Z,82.02
2023-02-27T18:52:18.460Z,81.49
2023-02-27T18:54:47.353Z,81.60
2023-02-27T18:57:16.402Z,81.54
2023-02-27T18:59:46.755Z,81.38
2023-02-27T19:02:17.178Z,81.51
2023-02-27T19:04:48.024Z,81.66
2023-02-27T19:07:16.939Z,81.61
2023-02-27T19:09:45.298Z,81.86
2023-02-27T19:12:13.580Z,82.02
2023-02-27T19:14:41.860Z,82.30
2023-02-27T19:17:10.246Z,82.17
2023-02-27T19:19:38.837Z,82.06
2023-02-27T19:22:07.357Z,82.03
2023-02-27T19:24:35.598Z,81.54
2023-02-27T19:27:04.680Z,81.28
2023-02-27T19:29:33.398Z,81.22
2023-02-27T19:32:02.366Z,81.09
2023-02-27T19:34:30.984Z,80.34
2023-02-27T19:36:59.262Z,80.56
2023-02-27T19:39:28.478Z,81.00
2023-02-27T19:41:56.963Z,81.28
2023-02-27T19:44:26.771Z,81.56
2023-02-27T19:46:55.217Z,81.84
2023-02-27T19:49:24.054Z,81.88
2023-02-27T19:51:52.538Z,81.87
2023-02-27T19:54:20.925Z,81.87
2023-02-27T19:56:49.414Z,81.41
2023-02-27T19:59:18.410Z,81.48
2023-02-27T20:01:46.697Z,80.98
2023-02-27T20:04:15.460Z,80.81
2023-02-27T20:06:46.743Z,81.11
2023-02-27T20:09:18.093Z,81.07
2023-02-27T20:11:48.828Z,81.01
2023-02-27T20:14:17.630Z,80.62
2023-02-27T20:16:46.577Z,80.40
2023-02-27T20:19:17.982Z,80.52
2023-02-27T20:21:47.230Z,80.52
2023-02-27T20:24:18.236Z,80.73
2023-02-27T20:26:52.543Z,81.24
2023-02-27T20:29:23.578Z,81.23
2023-02-27T20:31:54.591Z,81.58
2023-02-27T20:34:26.437Z,81.64
2023-02-27T20:36:55.891Z,81.65
2023-02-27T20:39:25.010Z,81.78
2023-02-27T20:41:53.409Z,82.03
2023-02-27T20:44:22.165Z,81.91
2023-02-27T20:46:50.864Z,82.20
2023-02-27T20:49:19.147Z,82.29
2023-02-27T20:51:47.429Z,82.28
2023-02-27T20:54:20.497Z,82.37
2023-02-27T20:56:55.458Z,82.35
2023-02-27T20:59:27.533Z,82.53
2023-02-27T21:01:56.125Z,82.51
2023-02-27T21:04:42.534Z,82.77
2023-02-27T21:07:17.171Z,82.81
2023-02-27T21:09:45.629Z,82.62
2023-02-27T21:12:14.029Z,82.74
2023-02-27T21:14:44.526Z,82.69
2023-02-27T21:17:13.968Z,83.19
2023-02-27T21:19:42.337Z,83.20
2023-02-27T21:22:11.484Z,83.29
2023-02-27T21:24:40.046Z,83.58
2023-02-27T21:27:08.524Z,82.75
2023-02-27T21:29:37.005Z,82.79
2023-02-27T21:32:07.412Z,82.86
2023-02-27T21:34:35.916Z,82.23
2023-02-27T21:37:06.443Z,82.09
2023-02-27T21:39:35.040Z,82.34
2023-02-27T21:42:04.140Z,81.88
2023-02-27T21:44:32.939Z,82.50
2023-02-27T21:47:10.089Z,82.73
2023-02-27T21:49:39.650Z,82.70
2023-02-27T21:52:07.901Z,82.06
2023-02-27T21:54:37.828Z,81.79
2023-02-27T21:57:06.440Z,81.38
2023-02-27T21:59:35.819Z,81.32
2023-02-27T22:02:05.817Z,81.15
2023-02-27T22:04:34.032Z,81.36
2023-02-27T22:07:02.311Z,81.63
2023-02-27T22:09:30.899Z,81.77
2023-02-27T22:11:59.300Z,81.99
2023-02-27T22:14:27.560Z,82.11
2023-02-27T22:16:56.455Z,82.22
2023-02-27T22:19:25.055Z,82.51
2023-02-27T22:21:53.431Z,82.59
2023-02-27T22:24:21.714Z,82.86
2023-02-27T22:26:50.618Z,83.03
2023-02-27T22:29:19.458Z,82.65
2023-02-27T22:31:47.913Z,82.74
2023-02-27T22:34:18.705Z,82.89
2023-02-27T22:36:48.893Z,82.21
2023-02-27T22:39:17.244Z,82.05
2023-02-27T22:41:46.370Z,82.01
2023-02-27T22:44:15.927Z,81.89
2023-02-27T22:46:47.994Z,81.94
2023-02-27T22:49:22.546Z,81.99
2023-02-27T22:51:52.180Z,82.08
2023-02-27T22:54:22.834Z,81.84
2023-02-27T22:56:53.212Z,82.25
2023-02-27T22:59:22.666Z,82.26
2023-02-27T23:01:51.144Z,82.17
2023-02-27T23:04:22.356Z,82.30
2023-02-27T23:06:52.649Z,82.19
2023-02-27T23:09:24.367Z,81.74
2023-02-27T23:11:54.441Z,81.77
2023-02-27T23:14:23.188Z,81.93
2023-02-27T23:16:51.850Z,81.69
2023-02-27T23:19:21.982Z,81.59
2023-02-27T23:21:50.398Z,81.49
2023-02-27T23:24:20.097Z,81.35
2023-02-27T23:26:50.595Z,81.10
2023-02-27T23:29:19.541Z,81.07
2023-02-27T23:31:48.202Z,81.40
2023-02-27T23:34:16.804Z,81.44
2023-02-27T23:36:45.185Z,81.08
2023-02-27T23:39:13.664Z,81.02
2023-02-27T23:41:42.767Z,81.19
2023-02-27T23:44:11.154Z,81.15
2023-02-27T23:46:40.870Z,81.28
2023-02-27T23:49:09.558Z,81.33
2023-02-27T23:51:38.254Z,81.23
2023-02-27T23:54:06.553Z,81.22
2023-02-27T23:56:35.325Z,81.15
2023-02-27T23:59:06.797Z,81.19
